Latest Weather Observations for Warrnambool

IDV60801

Issued at 12:35 pm EDT Saturday 1 November 2014 (issued every 30 minutes, with the page automatically refreshed every 10 minutes)

About weather observations | Map of weather stations | Latest weather observations for VIC | Other Formats
Station Details ID: 090186 Name: WARRNAMBOOL AIRPORT NDB Lat: -38.29 Lon: 142.45 Height: 70.8 m
Data from the previous 72 hours. | See also: Recent months at Warrnambool
Date/Time
EDT
Temp
°C
App
Temp
°C
Dew
Point
Rel
Hum
%
Delta-T
°C
Wind Press
QNH
hPa
Press
MSL
hPa
Rain
since 9 am
mm
Dir
 
Spd
km/h
Gust
km/h
Spd
kts
Gust
kts
01/12:30pm 13.2 4.2 6.5 64 3.2 WSW 43 59 23 32 1009.0 1009.0 1.6
01/12:11pm 12.5 4.7 8.4 76 2.0 WSW 39 61 21 33 1008.8 1008.8 1.6
01/12:00pm 10.3 3.4 7.2 81 1.5 WSW 33 50 18 27 1008.8 1008.8 1.6
01/11:56am 9.4 1.4 5.8 78 1.7 WSW 37 50 20 27 1008.8 1008.8 1.6
01/11:54am 9.0 -2.9 5.2 77 1.7 WSW 57 76 31 41 1008.8 1008.8 1.6
01/11:51am 9.9 -3.2 4.9 71 2.3 WSW 63 76 34 41 1008.7 1008.7 1.4
01/11:43am 12.2 3.2 7.3 72 2.4 WSW 44 65 24 35 1008.5 1008.5 1.2
01/11:30am 12.3 3.5 7.2 71 2.5 W 43 59 23 32 1008.3 1008.3 1.2
01/11:02am 11.2 4.5 9.5 89 0.9 WSW 35 54 19 29 1008.0 1007.9 1.2
01/11:00am 11.0 3.8 9.3 89 0.9 WSW 37 54 20 29 1008.0 1007.9 1.2
01/10:47am 9.7 2.1 7.5 86 1.1 W 37 61 20 33 1008.0 1008.0 1.2
01/10:30am 9.6 2.6 7.0 84 1.2 W 33 43 18 23 1007.5 1007.5 0.6
01/10:03am 12.7 4.6 7.0 68 2.8 WSW 39 57 21 31 1006.5 1006.5 0.2
01/10:00am 12.7 4.3 7.4 70 2.6 WSW 41 57 22 31 1006.4 1006.4 0.2
01/09:52am 12.2 5.1 7.9 75 2.1 WSW 35 54 19 29 1006.3 1006.3 0.2
01/09:30am 10.4 4.2 8.0 85 1.2 WSW 30 46 16 25 1006.1 1006.1 0.2
01/09:15am 10.9 2.9 7.6 80 1.6 WSW 39 65 21 35 1005.9 1005.9 0.0
01/09:07am 11.8 6.2 8.6 81 1.6 WSW 28 46 15 25 1005.5 1005.5 0.0
01/09:00am 11.4 5.7 8.4 82 1.5 WSW 28 37 15 20 1005.5 1005.5 5.2
01/08:30am 10.0 2.2 8.1 88 0.9 W 39 59 21 32 1005.1 1005.1 5.0
01/08:20am 10.5 4.4 8.4 87 1.0 W 30 63 16 34 1005.0 1005.0 5.0
01/08:00am 10.4 3.9 8.2 86 1.1 W 32 46 17 25 1004.7 1004.7 4.8
01/07:54am 10.8 5.1 8.4 85 1.2 W 28 54 15 29 1004.6 1004.6 4.8
01/07:30am 10.8 6.3 8.4 85 1.2 W 22 28 12 15 1004.1 1004.1 4.6
01/07:00am 10.3 5.7 8.2 87 1.0 W 22 26 12 14 1003.7 1003.7 4.6
01/06:30am 10.6 4.3 9.7 94 0.5 WSW 33 41 18 22 1003.1 1003.1 4.4
01/06:00am 10.6 4.1 10.3 98 0.2 WSW 35 52 19 28 1002.9 1002.9 4.4
01/05:58am 10.7 4.6 10.4 98 0.2 WSW 33 52 18 28 1002.8 1002.8 4.4
01/05:30am 10.6 4.7 10.3 98 0.2 WSW 32 43 17 23 1002.0 1002.0 4.0
01/05:08am 11.3 5.9 11.0 98 0.2 WSW 30 57 16 31 1001.6 1001.6 3.6
01/05:00am 11.5 5.8 11.2 98 0.2 WSW 32 43 17 23 1001.3 1001.3 3.2
01/04:52am 11.5 6.6 11.2 98 0.2 W 28 52 15 28 1001.1 1001.1 3.2
01/04:30am 11.7 7.9 11.2 97 0.3 W 22 30 12 16 1000.8 1000.8 2.8
01/04:00am 12.1 8.0 11.5 96 0.3 W 24 35 13 19 1000.6 1000.6 2.2
01/03:30am 12.6 9.4 12.0 96 0.3 WNW 20 26 11 14 1000.2 1000.2 1.8
01/03:00am 12.7 9.1 11.9 95 0.4 WNW 22 33 12 18 1000.2 1000.2 1.8
01/02:30am 12.7 10.1 11.9 95 0.4 WNW 17 30 9 16 1000.2 1000.2 1.8
01/02:00am 12.8 10.2 11.9 94 0.5 WNW 17 26 9 14 1000.0 1000.0 1.6
01/01:30am 13.0 11.1 11.7 92 0.7 WNW 13 19 7 10 1000.0 1000.0 0.6
01/01:00am 13.1 10.4 11.8 92 0.7 W 17 24 9 13 1000.3 1000.3 0.4
01/12:30am 13.5 10.4 12.2 92 0.7 W 20 28 11 15 1000.5 1000.5 0.0
01/12:00am 13.7 10.8 12.4 92 0.7 W 19 30 10 16 1000.9 1000.9 0.0
 
Date/Time
EDT
Temp
°C
App
Temp
°C
Dew
Point
Rel
Hum
%
Delta-T
°C
Wind Press
QNH
hPa
Press
MSL
hPa
Rain
since 9 am
mm
Dir
 
Spd
km/h
Gust
km/h
Spd
kts
Gust
kts
31/11:30pm 14.1 9.8 12.1 88 1.1 W 26 35 14 19 1001.9 1001.9 0.0
31/11:00pm 14.9 11.2 12.8 87 1.2 W 24 35 13 19 1002.4 1002.4 0.0
31/10:30pm 15.0 10.1 12.7 86 1.3 WSW 30 39 16 21 1000.7 1000.7 0.0
31/10:00pm 15.2 11.2 13.1 87 1.2 W 26 37 14 20 1001.4 1001.4 0.0
31/09:41pm 15.3 10.3 13.3 88 1.1 W 32 50 17 27 1000.4 1000.4 0.0
31/09:30pm 15.4 9.4 13.2 87 1.2 W 37 54 20 29 1000.4 1000.4 0.0
31/09:03pm 15.8 9.4 13.3 85 1.4 WSW 39 57 21 31 999.7 999.6 0.0
31/09:00pm 15.8 9.0 13.1 84 1.5 WSW 41 54 22 29 999.6 999.5 0.0
31/08:32pm 16.7 10.4 12.3 75 2.4 WSW 37 56 20 30 998.8 998.7 0.0
31/08:30pm 16.8 10.8 12.1 74 2.6 WSW 35 46 19 25 998.8 998.7 0.0
31/08:00pm 17.8 12.2 11.4 66 3.5 WSW 32 43 17 23 997.8 997.8 0.0
31/07:30pm 19.8 15.1 9.4 51 5.5 WSW 24 39 13 21 997.4 997.4 0.0
31/07:00pm 22.0 15.5 8.2 41 7.3 WSW 32 43 17 23 997.2 997.2 0.0
31/06:30pm 24.6 18.5 8.1 35 8.8 SW 30 44 16 24 997.2 997.2 0.0
31/06:00pm 28.5 23.9 8.2 28 11.2 NW 22 32 12 17 997.0 997.0 0.0
31/05:30pm 29.7 24.6 7.6 25 12.0 NW 24 35 13 19 997.3 997.3 0.0
31/05:00pm 30.9 24.8 6.7 22 13.1 NNW 28 37 15 20 997.7 997.7 0.0
31/04:30pm 29.5 22.8 5.6 22 12.6 NNW 30 48 16 26 998.1 998.1 0.0
31/04:00pm 31.0 21.3 3.9 18 14.0 NNW 44 59 24 32 998.7 998.6 0.0
31/03:51pm 31.2 23.4 4.9 19 13.8 NNW 35 54 19 29 998.9 998.8 0.0
31/03:30pm 30.4 22.4 5.6 21 13.1 NNW 37 50 20 27 999.5 999.4 0.0
31/03:00pm 29.7 22.4 7.0 24 12.3 N 35 50 19 27 1000.1 1000.1 0.0
31/02:49pm 28.3 21.0 7.0 26 11.4 N 35 54 19 29 1000.2 1000.2 0.0
31/02:30pm 27.5 20.7 7.9 29 10.6 N 33 50 18 27 1000.7 1000.7 0.0
31/02:00pm 28.2 20.4 5.1 23 12.0 N 35 57 19 31 1001.0 1001.0 0.0
31/01:44pm 27.4 19.4 5.6 25 11.3 N 37 56 20 30 1001.4 1001.4 0.0
31/01:30pm 27.6 19.5 3.3 21 12.1 NNW 35 48 19 26 1001.5 1001.5 0.0
31/01:00pm 28.6 20.5 7.2 26 11.5 N 39 57 21 31 1002.0 1002.0 0.0
31/12:57pm 28.4 20.6 6.5 25 11.6 N 37 57 20 31 1002.1 1002.1 0.0
31/12:30pm 28.3 21.0 8.6 29 10.8 N 37 48 20 26 1002.4 1002.4 0.0
31/12:10pm 28.1 20.8 7.4 27 11.1 N 35 56 19 30 1002.9 1002.9 0.0
31/12:00pm 28.5 22.3 10.2 32 10.4 N 33 48 18 26 1003.2 1003.2 0.0
31/11:30am 27.3 21.1 7.7 29 10.5 N 30 44 16 24 1003.8 1003.8 0.0
31/11:00am 24.6 19.3 11.2 43 7.6 NNE 30 43 16 23 1004.2 1004.2 0.0
31/10:30am 21.0 16.8 12.4 58 4.9 NNE 26 32 14 17 1004.8 1004.8 0.0
31/10:00am 19.6 16.8 13.3 67 3.6 N 20 28 11 15 1005.4 1005.4 0.0
31/09:30am 15.9 12.0 12.1 78 2.1 NNE 24 32 13 17 1005.9 1005.9 0.0
31/09:00am 13.1 8.3 11.5 90 0.9 N 28 33 15 18 1006.5 1006.5 0.0
31/08:30am 11.9 7.3 11.0 94 0.5 NNE 26 33 14 18 1006.9 1006.9 0.0
31/08:00am 11.1 7.1 10.6 97 0.3 NNE 22 30 12 16 1007.5 1007.5 0.0
31/07:30am 10.3 6.2 10.0 98 0.2 NNE 22 28 12 15 1008.0 1008.0 0.0
31/07:00am 9.8 5.6 9.7 99 0.1 NNE 22 30 12 16 1008.1 1008.1 0.0
31/06:30am 9.5 5.2 9.4 99 0.0 NNE 22 28 12 15 1008.0 1008.0 0.0
31/06:00am 9.1 4.7 9.0 99 0.0 NNE 22 30 12 16 1008.1 1008.1 0.0
31/05:30am 8.7 4.6 8.6 99 0.0 NNE 20 28 11 15 1008.9 1008.9 0.0
31/05:00am 8.1 4.0 8.0 99 0.0 NNE 19 22 10 12 1009.1 1009.1 0.0
31/04:30am 6.6 2.6 6.5 99 0.0 NNE 17 19 9 10 1009.8 1009.8 0.0
31/04:00am 6.7 3.1 6.6 99 0.0 N 15 19 8 10 1010.1 1010.1 0.0
31/03:30am 7.3 3.8 7.2 99 0.0 N 15 19 8 10 1010.7 1010.7 0.0
31/03:00am 6.6 2.6 6.5 99 0.0 NNE 17 19 9 10 1011.0 1011.0 0.0
31/02:30am 6.4 3.1 6.3 99 0.0 N 13 15 7 8 1011.6 1011.6 0.0
31/02:00am 6.4 3.4 6.1 98 0.1 N 11 13 6 7 1012.3 1012.4 0.0
31/01:30am 6.8 3.1 6.5 98 0.1 N 15 15 8 8 1012.5 1012.6 0.0
31/01:00am 7.2 3.6 6.8 97 0.2 N 15 15 8 8 1012.9 1012.9 0.0
31/12:30am 6.8 3.9 6.4 97 0.2 N 11 13 6 7 1013.3 1013.3 0.0
31/12:00am 6.7 4.5 6.1 96 0.3 N 7 11 4 6 1013.5 1013.5 0.0
 
Date/Time
EDT
Temp
°C
App
Temp
°C
Dew
Point
Rel
Hum
%
Delta-T
°C
Wind Press
QNH
hPa
Press
MSL
hPa
Rain
since 9 am
mm
Dir
 
Spd
km/h
Gust
km/h
Spd
kts
Gust
kts
30/11:30pm 7.7 5.7 7.0 95 0.3 NNW 7 9 4 5 1014.0 1014.0 0.0
30/11:00pm 7.0 4.8 6.1 94 0.4 NW 7 9 4 5 1014.2 1014.2 0.0
30/10:30pm 7.2 5.9 6.0 92 0.5 W 2 7 1 4 1014.3 1014.3 0.0
30/10:00pm 8.6 8.0 7.4 92 0.6 CALM 0 0 0 0 1014.2 1014.2 0.0
30/09:30pm 9.0 8.4 7.3 89 0.8 CALM 0 0 0 0 1014.1 1014.1 0.0
30/09:00pm 10.2 8.6 8.1 87 1.0 S 6 6 3 3 1014.0 1014.0 0.0
30/08:30pm 9.7 6.9 7.0 83 1.3 SW 11 15 6 8 1013.8 1013.8 0.0
30/08:00pm 11.4 8.4 7.5 77 1.9 SSW 13 15 7 8 1013.7 1013.7 0.0
30/07:30pm 13.8 10.7 9.0 73 2.4 SSW 15 19 8 10 1013.5 1013.5 0.0
30/07:00pm 14.7 11.0 9.5 71 2.7 SW 19 26 10 14 1013.4 1013.4 0.0
30/06:30pm 15.4 11.7 10.0 70 2.8 SSW 20 26 11 14 1013.4 1013.4 0.0
30/06:00pm 15.7 11.1 9.8 68 3.1 SSW 24 33 13 18 1013.4 1013.4 0.0
30/05:30pm 16.2 10.9 9.8 66 3.4 SW 28 33 15 18 1013.5 1013.5 0.0
30/05:00pm 16.9 11.3 10.1 64 3.6 SSW 30 37 16 20 1013.7 1013.7 0.0
30/04:30pm 16.6 11.5 9.3 62 3.8 SSW 26 33 14 18 1013.7 1013.7 0.0
30/04:00pm 16.7 12.1 9.6 63 3.7 SW 24 33 13 18 1013.8 1013.8 0.0
30/03:30pm 17.7 14.0 10.1 61 4.0 SW 20 26 11 14 1014.0 1014.0 0.0
30/03:00pm 17.0 13.0 10.4 65 3.5 SW 22 30 12 16 1014.4 1014.4 0.0
30/02:30pm 16.7 12.4 10.8 68 3.2 SSW 24 30 13 16 1014.6 1014.6 0.0
30/02:00pm 17.4 14.4 10.8 65 3.6 W 17 24 9 13 1014.5 1014.5 0.0
30/01:30pm 16.9 13.5 10.7 67 3.3 W 19 28 10 15 1014.8 1014.8 0.0
30/01:00pm 15.9 12.7 11.1 73 2.6 W 19 24 10 13 1014.9 1014.9 0.0
30/12:30pm 15.2 11.7 10.2 72 2.6 W 19 24 10 13 1015.2 1015.2 0.0
30/12:00pm 15.4 12.4 10.8 74 2.4 W 17 24 9 13 1015.4 1015.4 0.0
30/11:30am 15.9 12.5 10.4 70 2.9 W 19 26 10 14 1015.6 1015.6 0.0
30/11:00am 15.1 11.9 10.1 72 2.6 WNW 17 24 9 13 1015.5 1015.5 0.0
30/10:30am 15.4 12.8 10.8 74 2.4 NW 15 22 8 12 1015.6 1015.6 0.0
30/10:00am 14.3 11.1 9.9 75 2.3 WNW 17 24 9 13 1015.7 1015.7 0.0
30/09:30am 13.7 10.9 9.9 78 2.0 WNW 15 20 8 11 1016.0 1016.0 0.0
30/09:00am 13.3 10.9 9.9 80 1.8 NW 13 17 7 9 1015.9 1015.9 0.0
30/08:30am 12.9 10.6 10.3 84 1.3 NNW 13 15 7 8 1015.7 1015.7 0.0
30/08:00am 12.2 9.9 10.3 88 1.0 NNW 13 19 7 10 1015.2 1015.2 0.0
30/07:30am 11.6 9.6 10.0 90 0.8 NW 11 13 6 7 1015.1 1015.1 0.0
30/07:00am 11.1 8.7 9.9 92 0.6 NW 13 17 7 9 1015.1 1015.1 0.0
30/06:30am 11.0 8.9 9.9 93 0.6 NW 11 13 6 7 1014.9 1014.9 0.0
30/06:00am 11.0 8.6 10.1 94 0.5 NNW 13 17 7 9 1014.3 1014.3 0.0
30/05:30am 11.1 8.4 10.3 95 0.4 NW 15 19 8 10 1014.5 1014.5 0.0
30/05:00am 10.8 8.4 10.2 96 0.3 NNW 13 17 7 9 1014.2 1014.2 0.0
30/04:30am 10.5 8.1 10.0 97 0.3 NW 13 15 7 8 1014.4 1014.4 0.0
30/04:00am 10.4 8.0 9.9 97 0.3 NW 13 17 7 9 1014.9 1014.9 0.0
30/03:30am 10.5 7.8 10.2 98 0.2 NW 15 20 8 11 1014.8 1014.8 0.0
30/03:00am 9.9 7.8 9.8 99 0.1 NW 11 15 6 8 1014.7 1014.7 0.0
30/02:30am 8.4 5.9 8.0 97 0.2 NW 11 13 6 7 1014.8 1014.8 0.0
30/02:00am 9.5 7.2 9.0 97 0.2 NW 11 13 6 7 1015.1 1015.1 0.0
30/01:30am 9.5 6.8 9.0 97 0.2 NW 13 15 7 8 1015.3 1015.3 0.0
30/01:00am 9.0 6.2 8.5 97 0.2 NW 13 17 7 9 1015.5 1015.5 0.0
30/12:30am 10.0 8.2 9.4 96 0.3 NW 9 13 5 7 1015.9 1015.9 0.0
30/12:00am 9.7 7.4 9.1 96 0.3 WNW 11 13 6 7 1016.3 1016.3 0.0
 
Date/Time
EDT
Temp
°C
App
Temp
°C
Dew
Point
Rel
Hum
%
Delta-T
°C
Wind Press
QNH
hPa
Press
MSL
hPa
Rain
since 9 am
mm
Dir
 
Spd
km/h
Gust
km/h
Spd
kts
Gust
kts
29/11:30pm 9.5 6.8 8.9 96 0.3 NW 13 17 7 9 1016.4 1016.4 0.0
29/11:00pm 10.2 8.1 9.6 96 0.3 WNW 11 17 6 9 1016.6 1016.6 0.0
29/10:30pm 9.3 7.2 8.2 93 0.5 WNW 9 13 5 7 1016.7 1016.7 0.0
29/10:00pm 10.0 8.1 8.9 93 0.5 WNW 9 11 5 6 1016.7 1016.7 0.0
29/09:30pm 10.8 7.9 9.6 92 0.6 W 15 17 8 9 1016.8 1016.8 0.0
29/09:00pm 11.7 8.5 10.1 90 0.8 W 17 20 9 11 1016.8 1016.8 0.0
29/08:30pm 13.1 9.9 11.2 88 1.0 W 19 28 10 15 1016.5 1016.5 0.0
29/08:00pm 13.0 9.2 9.8 81 1.6 WSW 20 26 11 14 1016.4 1016.4 0.0
29/07:30pm 14.7 9.6 10.5 76 2.2 WSW 28 37 15 20 1016.2 1016.2 0.0
29/07:00pm 15.5 10.4 10.5 72 2.6 WSW 28 39 15 21 1015.9 1015.9 0.0
29/06:30pm 16.3 11.4 11.2 72 2.7 WSW 28 37 15 20 1015.8 1015.8 0.0
29/06:00pm 16.0 11.5 11.4 74 2.5 WSW 26 37 14 20 1015.9 1015.9 0.0
29/05:30pm 16.3 10.7 11.5 73 2.6 SW 32 39 17 21 1015.8 1015.8 0.0
29/05:00pm 16.8 12.0 11.5 71 2.9 SW 28 35 15 19 1015.7 1015.7 0.0
29/04:30pm 16.2 11.6 11.2 72 2.7 SW 26 35 14 19 1015.9 1015.9 0.0
29/04:00pm 18.1 13.5 9.5 57 4.5 WNW 24 32 13 17 1015.8 1015.8 0.0
29/03:30pm 17.5 13.3 9.9 61 4.0 WNW 22 35 12 19 1016.1 1016.1 0.0
29/03:00pm 16.8 12.7 10.0 64 3.6 WNW 22 32 12 17 1016.4 1016.4 0.0
29/02:30pm 16.6 12.8 9.8 64 3.6 WNW 20 30 11 16 1016.6 1016.6 0.0
29/02:00pm 16.5 12.4 10.1 66 3.4 NW 22 30 12 16 1016.7 1016.7 0.0
29/01:30pm 15.9 11.4 10.2 69 3.0 NW 24 32 13 17 1017.0 1017.0 0.0
29/01:00pm 15.6 11.1 9.9 69 3.0 NW 24 33 13 18 1017.1 1017.1 0.0

Other Formats:

Comma delimited format used in spreadsheet applications
http://www.bom.gov.au/fwo/IDV60801/IDV60801.94837.axf

JavaScript Object Notation format (JSON) in row-major order
http://www.bom.gov.au/fwo/IDV60801/IDV60801.94837.json